Faro Airport

LPFR | FAO

Faro , Faro , Portugal

Sunday, January 19th, 2020 | 19:04

Weather

LPFR 191830Z 35008KT CAVOK 14/01 Q1020

Charts

No Charts Available

Gates

43 Available

Runways

1 Available

Events

No events for this airport


New event